createdAt,value
2018-12-10T00:00:25.427Z,5.90
2018-12-10T00:03:00.261Z,5.90
2018-12-10T00:05:29.874Z,6.00
2018-12-10T00:07:59.439Z,6.10
2018-12-10T00:10:29.000Z,6.20
2018-12-10T00:12:58.613Z,6.30
2018-12-10T00:15:29.493Z,6.30
2018-12-10T00:17:59.169Z,6.40
2018-12-10T00:20:28.719Z,6.50
2018-12-10T00:22:58.291Z,6.50
2018-12-10T00:25:27.935Z,6.50
2018-12-10T00:27:57.501Z,6.60
2018-12-10T00:30:27.142Z,6.60
2018-12-10T00:32:56.716Z,6.70
2018-12-10T00:35:26.273Z,6.70
2018-12-10T00:37:55.980Z,6.70
2018-12-10T00:40:26.699Z,6.80
2018-12-10T00:42:56.273Z,6.80
2018-12-10T00:45:25.866Z,6.90
2018-12-10T00:47:55.455Z,6.90
2018-12-10T00:50:25.027Z,6.90
2018-12-10T00:52:54.629Z,6.90
2018-12-10T00:55:24.246Z,6.80
2018-12-10T00:57:53.807Z,6.70
2018-12-10T01:00:23.381Z,6.60
2018-12-10T01:02:52.982Z,6.60
2018-12-10T01:05:22.600Z,6.60
2018-12-10T01:07:52.170Z,6.60
2018-12-10T01:10:21.804Z,6.60
2018-12-10T01:12:51.388Z,6.70
2018-12-10T01:15:21.120Z,6.70
2018-12-10T01:17:50.706Z,6.70
2018-12-10T01:20:20.274Z,6.70
2018-12-10T01:22:49.883Z,6.70
2018-12-10T01:25:19.437Z,6.60
2018-12-10T01:27:49.066Z,6.60
2018-12-10T01:30:18.637Z,6.50
2018-12-10T01:32:48.225Z,6.40
2018-12-10T01:35:17.858Z,6.40
2018-12-10T01:37:47.439Z,6.40
2018-12-10T01:40:17.013Z,6.50
2018-12-10T01:42:46.606Z,6.50
2018-12-10T01:45:16.930Z,6.50
2018-12-10T01:47:46.521Z,6.60
2018-12-10T01:50:16.158Z,6.60
2018-12-10T01:52:45.724Z,6.60
2018-12-10T01:55:15.409Z,6.70
2018-12-10T01:57:44.994Z,6.70
2018-12-10T02:00:14.606Z,6.80
2018-12-10T02:02:44.214Z,6.80
2018-12-10T02:05:13.847Z,6.90
2018-12-10T02:07:43.437Z,6.90
2018-12-10T02:10:13.024Z,6.90
2018-12-10T02:12:42.635Z,7.00
2018-12-10T02:15:12.246Z,7.00
2018-12-10T02:17:41.857Z,7.00
2018-12-10T02:20:12.282Z,6.90
2018-12-10T02:22:41.874Z,6.90
2018-12-10T02:25:11.463Z,6.90
2018-12-10T02:27:41.030Z,6.90
2018-12-10T02:30:10.631Z,6.90
2018-12-10T02:32:40.197Z,6.90
2018-12-10T02:35:09.763Z,6.90
2018-12-10T02:37:39.339Z,6.90
2018-12-10T02:40:08.900Z,6.90
2018-12-10T02:42:38.739Z,6.80
2018-12-10T02:45:08.408Z,6.70
2018-12-10T02:47:38.176Z,6.70
2018-12-10T02:50:09.039Z,6.60
2018-12-10T02:52:38.633Z,6.50
2018-12-10T02:55:08.218Z,6.40
2018-12-10T02:57:37.860Z,6.40
2018-12-10T03:00:07.455Z,6.30
2018-12-10T03:02:37.077Z,6.30
2018-12-10T03:05:06.703Z,6.20
2018-12-10T03:07:36.260Z,6.10
2018-12-10T03:10:06.054Z,6.00
2018-12-10T03:12:35.626Z,6.00
2018-12-10T03:15:06.770Z,5.90
2018-12-10T03:17:36.322Z,5.80
2018-12-10T03:20:07.193Z,5.80
2018-12-10T03:22:36.799Z,5.80
2018-12-10T03:25:06.631Z,5.70
2018-12-10T03:27:36.219Z,5.60
2018-12-10T03:30:05.908Z,5.60
2018-12-10T03:32:35.528Z,5.50
2018-12-10T03:35:05.094Z,5.40
2018-12-10T03:37:37.196Z,5.40
2018-12-10T03:40:04.365Z,5.40
2018-12-10T03:42:33.942Z,5.30
2018-12-10T03:45:04.789Z,5.20
2018-12-10T03:47:34.358Z,5.20
2018-12-10T03:50:04.781Z,5.10
2018-12-10T03:52:35.137Z,5.00
2018-12-10T03:55:04.708Z,4.90
2018-12-10T03:57:35.594Z,4.80
2018-12-10T04:00:05.260Z,4.70
2018-12-10T04:02:34.845Z,4.70
2018-12-10T04:05:04.903Z,4.60
2018-12-10T04:07:34.556Z,4.60
2018-12-10T04:10:04.230Z,4.50
2018-12-10T04:12:33.883Z,4.50
2018-12-10T04:15:04.926Z,4.40
2018-12-10T04:17:34.549Z,4.30
2018-12-10T04:20:04.245Z,4.30
2018-12-10T04:22:35.157Z,4.20
2018-12-10T04:25:04.940Z,4.10
2018-12-10T04:27:34.658Z,4.10
2018-12-10T04:30:04.558Z,4.00
2018-12-10T04:32:34.106Z,4.00
2018-12-10T04:35:03.719Z,3.90
2018-12-10T04:37:33.288Z,3.80
2018-12-10T04:40:02.893Z,3.70
2018-12-10T04:42:32.478Z,3.60
2018-12-10T04:45:02.209Z,3.60
2018-12-10T04:47:31.782Z,3.50
2018-12-10T04:50:01.351Z,3.50
2018-12-10T04:52:31.057Z,3.40
2018-12-10T04:55:00.613Z,3.40
2018-12-10T04:57:30.178Z,3.40
2018-12-10T04:59:59.826Z,3.40
2018-12-10T05:02:29.381Z,3.30
2018-12-10T05:04:58.954Z,3.30
2018-12-10T05:07:28.630Z,3.30
2018-12-10T05:09:58.209Z,3.30
2018-12-10T05:12:27.806Z,3.30
2018-12-10T05:14:57.448Z,3.20
2018-12-10T05:17:27.226Z,3.20
2018-12-10T05:19:56.842Z,3.20
2018-12-10T05:22:26.467Z,3.20
2018-12-10T05:24:57.292Z,3.10
2018-12-10T05:27:26.844Z,3.20
2018-12-10T05:29:56.456Z,3.20
2018-12-10T05:32:26.067Z,3.20
2018-12-10T05:34:55.694Z,3.40
2018-12-10T05:37:25.338Z,3.40
2018-12-10T05:39:54.978Z,3.50
2018-12-10T05:42:24.636Z,3.50
2018-12-10T05:44:54.290Z,3.60
2018-12-10T05:47:23.884Z,3.60
2018-12-10T05:49:53.473Z,3.60
2018-12-10T05:52:23.058Z,3.60
2018-12-10T05:54:52.667Z,3.60
2018-12-10T05:57:22.298Z,3.70
2018-12-10T05:59:51.902Z,3.60
2018-12-10T06:02:21.470Z,3.60
2018-12-10T06:04:51.072Z,3.50
2018-12-10T06:07:20.689Z,3.50
2018-12-10T06:09:51.235Z,3.50
2018-12-10T06:12:20.036Z,3.50
2018-12-10T06:14:49.625Z,3.50
2018-12-10T06:17:19.333Z,3.50
2018-12-10T06:19:49.006Z,3.50
2018-12-10T06:22:18.630Z,3.50
2018-12-10T06:24:48.201Z,3.50
2018-12-10T06:27:17.784Z,3.50
2018-12-10T06:29:49.961Z,3.50
2018-12-10T06:32:19.617Z,3.50
2018-12-10T06:34:49.204Z,3.50
2018-12-10T06:37:18.861Z,3.50
2018-12-10T06:39:48.441Z,3.50
2018-12-10T06:42:18.031Z,3.50
2018-12-10T06:44:48.934Z,3.50
2018-12-10T06:47:18.517Z,3.50
2018-12-10T06:49:48.099Z,3.50
2018-12-10T06:52:17.758Z,3.40
2018-12-10T06:54:47.348Z,3.40
2018-12-10T06:57:16.920Z,3.40
2018-12-10T06:59:47.785Z,3.40
2018-12-10T07:02:18.645Z,3.40
2018-12-10T07:04:48.254Z,3.40
2018-12-10T07:07:17.947Z,3.40
2018-12-10T07:09:47.536Z,3.40
2018-12-10T07:12:17.178Z,3.40
2018-12-10T07:14:46.772Z,3.50
2018-12-10T07:17:16.374Z,3.50
2018-12-10T07:19:47.307Z,3.60
2018-12-10T07:22:16.899Z,3.60
2018-12-10T07:24:46.492Z,3.60
2018-12-10T07:27:16.153Z,3.70
2018-12-10T07:29:48.165Z,3.90
2018-12-10T07:32:17.818Z,4.20
2018-12-10T07:34:47.425Z,4.50
2018-12-10T07:37:17.046Z,4.90
2018-12-10T07:39:46.649Z,5.30
2018-12-10T07:42:17.571Z,5.70
2018-12-10T07:44:47.154Z,6.00
2018-12-10T07:47:16.763Z,6.30
2018-12-10T07:49:46.418Z,6.50
2018-12-10T07:52:16.002Z,6.60
2018-12-10T07:54:45.613Z,6.80
2018-12-10T07:57:15.225Z,6.90
2018-12-10T07:59:44.874Z,6.90
2018-12-10T08:02:14.524Z,6.90
2018-12-10T08:04:44.121Z,6.90
2018-12-10T08:07:13.734Z,6.80
2018-12-10T08:09:44.641Z,6.80
2018-12-10T08:12:14.265Z,6.90
2018-12-10T08:14:43.941Z,7.30
2018-12-10T08:17:13.615Z,7.60
2018-12-10T08:19:43.273Z,7.70
2018-12-10T08:22:14.136Z,7.60
2018-12-10T08:24:43.814Z,7.50
2018-12-10T08:27:13.422Z,7.30
2018-12-10T08:29:44.114Z,7.20
2018-12-10T08:32:13.693Z,7.00
2018-12-10T08:34:43.303Z,6.90
2018-12-10T08:37:12.916Z,6.90
2018-12-10T08:39:44.278Z,6.90
2018-12-10T08:42:16.518Z,6.80
2018-12-10T08:44:46.107Z,6.80
2018-12-10T08:47:16.182Z,6.70
2018-12-10T08:49:46.623Z,6.60
2018-12-10T08:52:16.281Z,6.40
2018-12-10T08:54:46.025Z,6.30
2018-12-10T08:57:15.761Z,6.20
2018-12-10T08:59:45.251Z,6.10
2018-12-10T09:02:16.146Z,6.10
2018-12-10T09:04:45.743Z,6.10
2018-12-10T09:07:15.326Z,6.20
2018-12-10T09:09:44.938Z,6.50
2018-12-10T09:12:14.515Z,6.90
2018-12-10T09:14:44.122Z,7.10
2018-12-10T09:17:13.703Z,7.30
2018-12-10T09:19:43.298Z,7.50
2018-12-10T09:22:12.990Z,7.60
2018-12-10T09:24:42.486Z,8.20
2018-12-10T09:27:12.620Z,8.50
2018-12-10T09:29:42.383Z,8.60
2018-12-10T09:32:12.490Z,8.50
2018-12-10T09:34:41.553Z,8.40
2018-12-10T09:37:11.208Z,8.40
2018-12-10T09:39:40.799Z,8.50
2018-12-10T09:42:10.441Z,8.70
2018-12-10T09:44:40.054Z,8.80
2018-12-10T09:47:11.116Z,8.90
2018-12-10T09:49:40.707Z,9.10
2018-12-10T09:52:10.274Z,9.20
2018-12-10T09:54:39.923Z,9.40
2018-12-10T09:57:09.622Z,9.70
2018-12-10T10:02:33.262Z,10.20
2018-12-10T10:05:03.016Z,10.10
2018-12-10T10:07:32.673Z,10.00
2018-12-10T10:10:02.272Z,10.00
2018-12-10T10:12:31.992Z,9.80
2018-12-10T10:15:01.651Z,9.50
2018-12-10T10:17:31.837Z,9.00
2018-12-10T10:20:20.278Z,8.50
2018-12-10T10:22:49.990Z,8.10
2018-12-10T10:25:19.657Z,7.70
2018-12-10T10:27:49.267Z,7.40
2018-12-10T10:30:18.926Z,7.10
2018-12-10T10:32:48.605Z,6.90
2018-12-10T10:35:18.211Z,6.80
2018-12-10T10:37:50.259Z,6.70
2018-12-10T10:40:22.407Z,6.70
2018-12-10T10:42:51.972Z,6.80
2018-12-10T10:45:21.547Z,6.90
2018-12-10T10:47:51.246Z,7.00
2018-12-10T10:50:20.819Z,7.00
2018-12-10T10:52:52.099Z,7.10
2018-12-10T10:55:21.190Z,7.20
2018-12-10T10:57:50.802Z,7.40
2018-12-10T11:00:27.120Z,7.50
2018-12-10T11:03:02.279Z,7.60
2018-12-10T11:05:33.166Z,7.90
2018-12-10T11:08:02.777Z,8.00
2018-12-10T11:10:35.015Z,7.90
2018-12-10T11:13:04.606Z,7.70
2018-12-10T11:15:34.274Z,7.70
2018-12-10T11:18:05.130Z,7.70
2018-12-10T11:20:34.725Z,7.70
2018-12-10T11:23:05.611Z,7.60
2018-12-10T11:25:35.231Z,7.60
2018-12-10T11:28:04.827Z,7.70
2018-12-10T11:30:34.493Z,7.80
2018-12-10T11:33:05.323Z,7.80
2018-12-10T11:35:34.911Z,7.80
2018-12-10T11:38:04.481Z,7.80
2018-12-10T11:40:34.123Z,7.80
2018-12-10T11:43:03.731Z,7.80
2018-12-10T11:45:33.311Z,7.70
2018-12-10T11:48:02.926Z,7.50
2018-12-10T11:50:32.520Z,7.30
2018-12-10T11:53:02.110Z,7.00
2018-12-10T11:55:33.058Z,6.80
2018-12-10T11:58:05.095Z,6.60
2018-12-10T12:00:36.000Z,6.40
2018-12-10T12:03:05.586Z,6.20
2018-12-10T12:05:35.173Z,6.00
2018-12-10T12:08:06.010Z,5.90
2018-12-10T12:10:35.642Z,5.70
2018-12-10T12:13:05.272Z,5.60
2018-12-10T12:15:36.186Z,5.50
2018-12-10T12:18:05.750Z,5.40
2018-12-10T12:20:35.342Z,5.40
2018-12-10T12:23:04.928Z,5.30
2018-12-10T12:25:34.499Z,5.30
2018-12-10T12:28:04.121Z,5.30
2018-12-10T12:30:33.696Z,5.30
2018-12-10T12:33:03.278Z,5.30
2018-12-10T12:35:32.891Z,5.30
2018-12-10T12:38:02.497Z,5.30
2018-12-10T12:40:32.082Z,5.30
2018-12-10T12:43:08.531Z,5.20
2018-12-10T12:45:35.038Z,5.10
2018-12-10T12:48:04.613Z,5.00
2018-12-10T12:50:34.194Z,4.80
2018-12-10T12:53:03.812Z,4.80
2018-12-10T12:55:33.400Z,4.70
2018-12-10T12:58:04.560Z,4.80
2018-12-10T13:00:41.649Z,4.80
2018-12-10T13:03:03.803Z,4.80
2018-12-10T13:05:34.603Z,4.80
2018-12-10T13:08:04.223Z,4.80
2018-12-10T13:10:33.805Z,4.70
2018-12-10T13:13:03.387Z,4.70
2018-12-10T13:15:32.986Z,4.80
2018-12-10T13:18:03.928Z,4.70
2018-12-10T13:20:33.615Z,4.60
2018-12-10T13:23:03.200Z,4.40
2018-12-10T13:25:32.802Z,4.30
2018-12-10T13:28:02.370Z,4.10
2018-12-10T13:30:32.096Z,4.00
2018-12-10T13:33:02.729Z,3.90
2018-12-10T13:38:04.461Z,3.70
2018-12-10T13:40:31.476Z,3.60
2018-12-10T13:43:01.019Z,3.60
2018-12-10T13:45:31.856Z,3.50
2018-12-10T13:48:02.642Z,3.50
2018-12-10T13:50:32.237Z,3.40
2018-12-10T13:53:03.130Z,3.40
2018-12-10T13:55:32.707Z,3.40
2018-12-10T13:58:02.716Z,3.30
2018-12-10T14:00:31.906Z,3.20
2018-12-10T14:03:05.946Z,3.20
2018-12-10T14:05:35.502Z,3.20
2018-12-10T14:08:05.071Z,3.10
2018-12-10T14:10:34.671Z,3.10
2018-12-10T14:13:04.250Z,3.20
2018-12-10T14:15:33.817Z,3.20
2018-12-10T14:18:04.637Z,3.30
2018-12-10T14:20:34.215Z,3.30
2018-12-10T14:23:03.829Z,3.30
2018-12-10T14:25:33.405Z,3.30
2018-12-10T14:28:03.056Z,3.30
2018-12-10T14:30:32.627Z,3.20
2018-12-10T14:33:02.183Z,3.10
2018-12-10T14:35:31.785Z,3.10
2018-12-10T14:38:01.363Z,3.00
2018-12-10T14:40:32.279Z,3.00
2018-12-10T14:43:01.879Z,2.90
2018-12-10T14:45:31.462Z,2.90
2018-12-10T14:48:01.097Z,2.80
2018-12-10T14:50:30.756Z,2.80
2018-12-10T14:53:00.414Z,2.70
2018-12-10T14:55:31.146Z,2.60
2018-12-10T14:58:00.759Z,2.60
2018-12-10T15:00:30.386Z,2.50
2018-12-10T15:02:59.979Z,2.50
2018-12-10T15:05:29.534Z,2.40
2018-12-10T15:07:59.120Z,2.40
2018-12-10T15:10:29.968Z,2.40
2018-12-10T15:12:59.526Z,2.40
2018-12-10T15:15:29.088Z,2.40
2018-12-10T15:18:00.024Z,2.40
2018-12-10T15:20:29.680Z,2.40
2018-12-10T15:22:59.274Z,2.50
2018-12-10T15:25:28.890Z,2.60
2018-12-10T15:27:59.598Z,2.60
2018-12-10T15:30:30.525Z,2.70
2018-12-10T15:33:00.100Z,2.70
2018-12-10T15:35:29.652Z,2.80
2018-12-10T15:37:59.290Z,2.90
2018-12-10T15:40:28.838Z,2.90
2018-12-10T15:42:58.531Z,2.90
2018-12-10T15:45:28.154Z,3.00
2018-12-10T15:47:57.751Z,2.90
2018-12-10T15:50:27.335Z,2.90
2018-12-10T15:52:59.335Z,2.90
2018-12-10T15:55:28.897Z,2.90
2018-12-10T15:57:58.502Z,3.00
2018-12-10T16:00:29.367Z,2.90
2018-12-10T16:02:58.995Z,2.90
2018-12-10T16:05:28.595Z,3.00
2018-12-10T16:07:58.221Z,3.00
2018-12-10T16:10:28.616Z,3.00
2018-12-10T16:12:59.482Z,3.00
2018-12-10T16:15:29.081Z,3.10
2018-12-10T16:17:59.913Z,3.10
2018-12-10T16:20:29.515Z,3.10
2018-12-10T16:22:59.101Z,3.20
2018-12-10T16:25:31.306Z,3.30
2018-12-10T16:28:01.001Z,3.30
2018-12-10T16:30:30.644Z,3.30
2018-12-10T16:33:00.350Z,3.20
2018-12-10T16:35:29.966Z,3.20
2018-12-10T16:37:59.535Z,3.20
2018-12-10T16:40:29.146Z,3.10
2018-12-10T16:42:58.790Z,3.20
2018-12-10T16:45:30.330Z,3.10
2018-12-10T16:47:59.957Z,3.20
2018-12-10T16:50:29.553Z,3.20
2018-12-10T16:52:59.115Z,3.20
2018-12-10T16:55:28.705Z,3.20
2018-12-10T16:57:58.281Z,3.20
2018-12-10T17:00:29.197Z,3.20
2018-12-10T17:02:58.805Z,3.20
2018-12-10T17:05:30.050Z,3.10
2018-12-10T17:07:59.620Z,3.10
2018-12-10T17:10:29.189Z,3.00
2018-12-10T17:12:58.762Z,3.00
2018-12-10T17:15:29.705Z,3.00
2018-12-10T17:17:59.375Z,3.40
2018-12-10T17:20:29.001Z,4.20
2018-12-10T17:22:58.626Z,4.80
2018-12-10T17:25:28.215Z,5.30
2018-12-10T17:27:57.814Z,5.80
2018-12-10T17:30:27.407Z,6.20
2018-12-10T17:32:56.999Z,6.40
2018-12-10T17:35:27.898Z,6.60
2018-12-10T17:44:44.640Z,6.90
2018-12-10T17:47:14.216Z,7.00
2018-12-10T17:49:45.049Z,7.10
2018-12-10T17:52:14.619Z,7.20
2018-12-10T17:54:44.217Z,7.20
2018-12-10T17:57:15.105Z,7.30
2018-12-10T17:59:44.697Z,7.30
2018-12-10T18:02:14.282Z,7.40
2018-12-10T18:04:46.401Z,7.40
2018-12-10T18:07:15.969Z,7.40
2018-12-10T18:09:45.550Z,7.50
2018-12-10T18:12:15.250Z,7.50
2018-12-10T18:14:44.833Z,7.50
2018-12-10T18:17:14.406Z,7.50
2018-12-10T18:19:45.271Z,7.50
2018-12-10T18:22:16.097Z,7.50
2018-12-10T18:24:45.651Z,7.40
2018-12-10T18:27:15.848Z,7.40
2018-12-10T18:29:45.440Z,7.40
2018-12-10T18:32:15.024Z,7.30
2018-12-10T18:34:44.614Z,7.30
2018-12-10T18:37:14.178Z,7.30
2018-12-10T18:39:43.765Z,7.30
2018-12-10T18:42:14.601Z,7.30
2018-12-10T18:44:44.184Z,7.30
2018-12-10T18:47:13.815Z,7.30
2018-12-10T18:49:43.407Z,7.30
2018-12-10T18:52:14.270Z,7.30
2018-12-10T18:54:43.844Z,7.30
2018-12-10T18:57:14.712Z,7.30
2018-12-10T18:59:44.574Z,7.20
2018-12-10T19:02:14.151Z,7.20
2018-12-10T19:04:47.416Z,7.10
2018-12-10T19:07:17.009Z,7.10
2018-12-10T19:09:46.608Z,7.00
2018-12-10T19:12:16.185Z,7.00
2018-12-10T19:14:45.831Z,6.90
2018-12-10T19:17:15.489Z,6.90
2018-12-10T19:19:46.231Z,6.90
2018-12-10T19:22:17.130Z,6.90
2018-12-10T19:24:46.681Z,6.90
2018-12-10T19:27:16.248Z,6.90
2018-12-10T19:29:47.173Z,6.90
2018-12-10T19:32:16.721Z,6.90
2018-12-10T19:34:46.384Z,7.00
2018-12-10T19:37:15.958Z,7.00
2018-12-10T19:39:45.546Z,7.00
2018-12-10T19:42:16.365Z,7.00
2018-12-10T19:44:46.012Z,7.00
2018-12-10T19:47:15.600Z,7.00
2018-12-10T19:49:45.235Z,7.00
2018-12-10T19:52:14.837Z,7.00
2018-12-10T19:54:44.397Z,7.00
2018-12-10T19:57:14.053Z,7.00
2018-12-10T19:59:43.632Z,6.90
2018-12-10T20:02:13.220Z,6.90
2018-12-10T20:04:42.846Z,6.90
2018-12-10T20:07:12.401Z,6.90
2018-12-10T20:09:42.015Z,6.90
2018-12-10T20:12:11.661Z,6.90
2018-12-10T20:14:42.481Z,6.90
2018-12-10T20:17:12.074Z,6.90
2018-12-10T20:19:42.897Z,6.90
2018-12-10T20:22:12.506Z,6.90
2018-12-10T20:24:42.105Z,6.90
2018-12-10T20:27:11.807Z,6.90
2018-12-10T20:29:41.384Z,6.80
2018-12-10T20:32:11.027Z,6.80
2018-12-10T20:34:40.698Z,6.80
2018-12-10T20:37:11.594Z,6.80
2018-12-10T20:39:41.194Z,6.80
2018-12-10T20:42:12.140Z,6.80
2018-12-10T20:44:41.749Z,6.70
2018-12-10T20:47:11.334Z,6.70
2018-12-10T20:49:42.514Z,6.80
2018-12-10T20:52:12.099Z,6.80
2018-12-10T20:54:41.679Z,6.80
2018-12-10T20:57:12.514Z,6.80
2018-12-10T20:59:42.145Z,6.90
2018-12-10T21:02:15.533Z,6.90
2018-12-10T21:04:45.179Z,7.00
2018-12-10T21:07:14.784Z,7.00
2018-12-10T21:09:44.858Z,7.00
2018-12-10T21:12:14.461Z,7.00
2018-12-10T21:14:45.419Z,7.00
2018-12-10T21:17:14.994Z,7.00
2018-12-10T21:19:45.758Z,7.00
2018-12-10T21:22:15.378Z,7.00
2018-12-10T21:24:45.047Z,7.00
2018-12-10T21:27:14.681Z,6.90
2018-12-10T21:29:44.250Z,6.90
2018-12-10T21:32:13.824Z,6.90
2018-12-10T21:34:43.458Z,6.90
2018-12-10T21:37:13.086Z,6.90
2018-12-10T21:39:42.664Z,7.00
2018-12-10T21:42:13.561Z,7.00
2018-12-10T21:44:46.755Z,7.00
2018-12-10T21:47:16.306Z,7.00
2018-12-10T21:49:45.956Z,6.90
2018-12-10T21:52:16.806Z,7.00
2018-12-10T21:54:46.382Z,7.00
2018-12-10T21:57:15.944Z,7.00
2018-12-10T21:59:48.178Z,7.00
2018-12-10T22:02:17.751Z,7.00
2018-12-10T22:04:47.344Z,7.10
2018-12-10T22:07:16.945Z,7.10
2018-12-10T22:09:46.792Z,7.10
2018-12-10T22:12:16.399Z,7.10
2018-12-10T22:14:45.997Z,7.10
2018-12-10T22:17:18.098Z,7.00
2018-12-10T22:19:48.939Z,7.00
2018-12-10T22:22:18.507Z,7.00
2018-12-10T22:24:48.079Z,7.10
2018-12-10T22:27:18.978Z,7.00
2018-12-10T22:29:48.526Z,7.00
2018-12-10T22:32:18.084Z,7.00
2018-12-10T22:34:47.670Z,7.00
2018-12-10T22:37:17.265Z,7.00
2018-12-10T22:39:46.824Z,7.00
2018-12-10T22:42:16.483Z,6.90
2018-12-10T22:44:46.030Z,6.90
2018-12-10T22:47:15.633Z,6.90
2018-12-10T22:49:46.402Z,6.90
2018-12-10T22:52:16.022Z,6.80
2018-12-10T22:54:45.577Z,6.80
2018-12-10T22:57:15.132Z,6.80
2018-12-10T22:59:44.720Z,6.90
2018-12-10T23:02:14.334Z,6.80
2018-12-10T23:04:45.289Z,6.80
2018-12-10T23:07:14.923Z,6.80
2018-12-10T23:09:45.693Z,6.80
2018-12-10T23:12:15.311Z,6.80
2018-12-10T23:14:44.870Z,6.90
2018-12-10T23:17:14.448Z,6.90
2018-12-10T23:19:46.461Z,6.90
2018-12-10T23:22:16.080Z,7.00
2018-12-10T23:24:45.672Z,7.00
2018-12-10T23:27:15.266Z,7.00
2018-12-10T23:29:44.880Z,7.10
2018-12-10T23:32:15.769Z,7.10
2018-12-10T23:34:45.361Z,7.20
2018-12-10T23:37:14.919Z,7.20
2018-12-10T23:39:44.530Z,7.20
2018-12-10T23:42:14.125Z,7.20
2018-12-10T23:44:49.261Z,7.20
2018-12-10T23:47:18.886Z,7.10
2018-12-10T23:49:48.460Z,7.10
2018-12-10T23:52:18.054Z,7.20
2018-12-10T23:54:47.607Z,7.20
2018-12-10T23:57:17.182Z,7.20
2018-12-10T23:59:48.081Z,7.20
